Time;durP1;ratioP1;P1;durP2;ratioP2;P2;SDS_P1;SDS_P2;PMS_P1;PMS_P2;Temp;Humidity;BMP_temperature;BMP_pressure;BME280_temperature;BME280_humidity;BME280_pressure;Samples;Min_cycle;Max_cycle;Signal;HPM_P1;HPM_P2
2021/08/31 00:01:59;;;;;;;6.58;5.92;;;;;;;13.70;92.13;98194.08;2292004;78;20959;-84
2021/08/31 00:04:59;;;;;;;7.72;6.45;;;;;;;13.68;92.05;98197.16;2291543;78;20960;-83
2021/08/31 00:08:00;;;;;;;6.35;5.70;;;;;;;13.65;92.06;98196.75;2291829;78;21039;-81
2021/08/31 00:11:00;;;;;;;5.58;5.08;;;;;;;13.62;92.31;98194.61;2291821;78;20956;-82
2021/08/31 00:14:01;;;;;;;6.50;5.00;;;;;;;13.56;92.91;98195.98;2291809;78;20945;-83
2021/08/31 00:17:01;;;;;;;5.25;4.78;;;;;;;13.51;93.16;98208.27;2291167;78;20979;-83
2021/08/31 00:20:02;;;;;;;5.05;4.37;;;;;;;13.47;93.14;98208.74;2291746;78;21283;-81
2021/08/31 00:23:03;;;;;;;5.20;4.70;;;;;;;13.44;92.85;98206.59;2291624;78;20975;-83
2021/08/31 00:26:03;;;;;;;4.85;4.45;;;;;;;13.42;92.81;98207.05;2291810;78;21374;-81
2021/08/31 00:29:04;;;;;;;5.70;4.45;;;;;;;13.39;92.64;98200.95;2291705;78;21433;-82
2021/08/31 00:35:21;;;;;;;4.75;4.28;;;;;;;13.37;92.78;98199.23;2293788;77;22924;-83
2021/08/31 00:38:22;;;;;;;6.58;4.53;;;;;;;13.30;92.75;98198.42;2242644;78;21347;-83
2021/08/31 00:41:22;;;;;;;5.55;5.05;;;;;;;13.28;93.32;98198.88;2242174;79;20968;-83
2021/08/31 00:44:23;;;;;;;5.78;5.00;;;;;;;13.24;92.89;98199.78;2242667;79;20939;-82
2021/08/31 00:47:23;;;;;;;6.10;5.42;;;;;;;13.25;92.81;98195.41;2242576;79;20991;-82
2021/08/31 00:50:24;;;;;;;6.37;5.87;;;;;;;13.25;92.93;98194.97;2242195;79;20963;-82
2021/08/31 00:53:25;;;;;;;6.53;5.92;;;;;;;13.26;92.95;98197.15;2242486;79;21315;-82
2021/08/31 00:56:25;;;;;;;6.70;6.10;;;;;;;13.24;92.97;98194.55;2242685;79;20944;-83
2021/08/31 00:59:26;;;;;;;6.15;5.58;;;;;;;13.25;92.79;98192.79;2242985;79;20944;-81
2021/08/31 01:02:26;;;;;;;9.75;5.97;;;;;;;13.26;92.75;98192.78;2242101;79;20947;-83
2021/08/31 01:05:27;;;;;;;7.03;6.33;;;;;;;13.31;92.79;98187.49;2242468;79;20952;-82
2021/08/31 01:08:27;;;;;;;5.80;5.30;;;;;;;13.32;92.73;98195.34;2242854;79;20955;-82
2021/08/31 01:11:28;;;;;;;6.15;5.55;;;;;;;13.33;92.80;98192.28;2241893;79;20975;-82
2021/08/31 01:14:28;;;;;;;6.47;5.78;;;;;;;13.34;92.61;98194.02;2242149;79;20983;-83
2021/08/31 01:17:29;;;;;;;6.47;5.87;;;;;;;13.35;92.50;98194.44;2242123;79;20978;-82
2021/08/31 01:20:32;;;;;;;8.10;5.85;;;;;;;13.36;92.52;98197.05;2198676;81;21325;-82
2021/08/31 01:23:32;;;;;;;6.45;5.72;;;;;;;13.40;92.53;98193.95;2184326;82;21052;-82
2021/08/31 01:26:33;;;;;;;6.37;5.85;;;;;;;13.43;92.38;98195.23;2158070;83;20963;-82
2021/08/31 01:29:33;;;;;;;6.20;5.60;;;;;;;13.45;92.39;98190.84;2184135;82;21351;-80
2021/08/31 01:32:34;;;;;;;7.67;6.87;;;;;;;13.49;92.36;98187.75;2158569;83;20971;-81
2021/08/31 01:35:34;;;;;;;12.35;11.25;;;;;;;13.53;92.33;98177.66;2167853;81;20992;-82
2021/08/31 01:38:35;;;;;;;8.70;7.90;;;;;;;13.56;92.32;98178.94;2181852;81;20983;-82
2021/08/31 01:41:35;;;;;;;7.78;7.08;;;;;;;13.58;92.42;98172.80;2181923;81;21343;-82
2021/08/31 01:44:36;;;;;;;8.00;6.70;;;;;;;13.63;92.34;98167.50;2181967;81;20966;-82
2021/08/31 01:47:36;;;;;;;8.68;7.40;;;;;;;13.66;92.03;98166.15;2180834;81;20967;-82
2021/08/31 01:50:37;;;;;;;7.95;6.95;;;;;;;13.68;92.02;98163.07;2180557;81;20970;-81
2021/08/31 01:53:37;;;;;;;8.45;7.55;;;;;;;13.71;91.94;98159.09;2181723;82;21313;-82
2021/08/31 01:56:39;;;;;;;7.97;7.22;;;;;;;13.71;91.90;98148.16;2180759;82;20932;-82
2021/08/31 01:59:39;;;;;;;8.20;7.37;;;;;;;13.74;91.74;98153.81;2181503;81;20947;-82
2021/08/31 02:02:40;;;;;;;8.50;7.67;;;;;;;13.73;91.68;98146.83;2181777;82;21331;-83
2021/08/31 02:05:40;;;;;;;8.08;7.35;;;;;;;13.78;91.77;98148.09;2181570;81;20955;-81
2021/08/31 02:08:41;;;;;;;12.03;9.05;;;;;;;13.80;91.64;98148.50;2180928;82;21011;-82
2021/08/31 02:11:42;;;;;;;8.83;7.92;;;;;;;13.81;91.59;98146.30;2181243;82;21365;-81
2021/08/31 02:14:42;;;;;;;9.18;8.28;;;;;;;13.84;91.59;98143.64;2181468;82;20979;-83
2021/08/31 02:17:43;;;;;;;11.12;9.20;;;;;;;13.88;91.53;98138.81;2181545;82;20947;-81
2021/08/31 02:20:43;;;;;;;11.90;9.35;;;;;;;13.92;91.50;98139.20;2181301;82;20955;-81
2021/08/31 02:23:44;;;;;;;12.53;10.08;;;;;;;13.95;91.40;98135.67;2181137;81;20994;-82
2021/08/31 02:26:44;;;;;;;10.88;9.83;;;;;;;13.98;91.50;98141.74;2167828;82;20976;-81
2021/08/31 02:29:45;;;;;;;10.13;9.10;;;;;;;14.03;91.49;98143.86;2142164;83;21339;-81
2021/08/31 02:32:45;;;;;;;11.15;9.15;;;;;;;14.06;91.18;98140.77;2168057;82;21016;-81
2021/08/31 02:35:46;;;;;;;9.95;9.05;;;;;;;14.07;91.14;98139.44;2141690;81;21030;-81
2021/08/31 02:38:46;;;;;;;9.63;8.53;;;;;;;14.06;90.78;98139.46;2167685;82;20988;-82
2021/08/31 02:41:47;;;;;;;16.90;10.20;;;;;;;14.02;90.83;98138.19;2142054;83;21006;-82
2021/08/31 02:44:48;;;;;;;15.88;12.40;;;;;;;14.02;90.90;98136.88;2167621;82;21292;-81
2021/08/31 02:47:48;;;;;;;9.93;8.90;;;;;;;14.02;90.85;98142.13;2181209;82;20920;-82
2021/08/31 02:50:49;;;;;;;9.83;8.68;;;;;;;13.98;90.82;98143.05;2180644;82;20971;-79
2021/08/31 02:53:49;;;;;;;8.15;7.45;;;;;;;13.92;90.77;98133.08;2181096;81;21346;-81
2021/08/31 02:56:50;;;;;;;9.43;8.35;;;;;;;13.89;90.79;98135.74;2181125;81;21046;-81
2021/08/31 02:59:50;;;;;;;9.20;8.30;;;;;;;13.85;90.87;98143.20;2180941;81;20975;-81
2021/08/31 03:02:51;;;;;;;10.00;9.10;;;;;;;13.83;91.00;98145.84;2181054;82;20967;-82
2021/08/31 03:05:53;;;;;;;14.03;10.03;;;;;;;13.78;91.01;98145.47;2180832;81;21049;-83
2021/08/31 03:08:54;;;;;;;8.60;7.80;;;;;;;13.75;91.04;98143.75;2167244;82;21012;-82
2021/08/31 03:11:54;;;;;;;9.70;8.28;;;;;;;13.76;91.33;98142.86;2141813;83;20963;-82
2021/08/31 03:14:55;;;;;;;10.15;8.35;;;;;;;13.77;91.20;98140.66;2166928;82;21035;-81
2021/08/31 03:17:55;;;;;;;9.68;7.60;;;;;;;13.76;91.10;98138.93;2141776;83;20990;-81
2021/08/31 03:20:59;;;;;;;9.35;8.40;;;;;;;13.75;91.10;98132.39;2167331;82;21000;-81
2021/08/31 03:23:59;;;;;;;8.70;7.80;;;;;;;13.74;91.16;98130.21;2141812;83;20935;-82
2021/08/31 03:26:59;;;;;;;9.75;8.08;;;;;;;13.70;91.21;98133.31;2167422;82;20992;-81
2021/08/31 03:30:00;;;;;;;9.85;8.38;;;;;;;13.69;91.22;98131.58;2141484;83;21008;-82
2021/08/31 03:33:00;;;;;;;9.88;8.03;;;;;;;13.71;91.44;98138.12;2166473;82;20992;-82
2021/08/31 03:36:04;;;;;;;9.40;8.48;;;;;;;13.71;91.28;98135.49;2140478;81;21416;-81
2021/08/31 03:39:03;;;;;;;13.05;8.45;;;;;;;13.70;91.32;98136.38;2166304;82;21016;-82
2021/08/31 03:42:04;;;;;;;9.63;8.60;;;;;;;13.70;91.26;98136.38;2141069;83;21366;-82
2021/08/31 03:45:04;;;;;;;10.68;9.50;;;;;;;13.70;91.47;98135.94;2166339;82;20998;-81
2021/08/31 03:48:05;;;;;;;13.85;9.63;;;;;;;13.68;91.49;98137.71;2141777;83;21026;-81
2021/08/31 03:51:05;;;;;;;11.00;9.85;;;;;;;13.66;91.54;98134.23;2167422;82;20968;-81
2021/08/31 03:54:06;;;;;;;9.20;8.30;;;;;;;13.68;91.58;98128.53;2141983;83;20991;-81
2021/08/31 03:57:07;;;;;;;10.32;8.35;;;;;;;13.69;91.77;98138.58;2167774;82;20957;-81
2021/08/31 04:00:07;;;;;;;11.33;9.90;;;;;;;13.69;91.67;98138.13;2141373;83;21379;-81
2021/08/31 04:03:08;;;;;;;9.90;9.00;;;;;;;13.70;91.70;98135.94;2166723;82;20984;-81
2021/08/31 04:06:08;;;;;;;10.38;9.35;;;;;;;13.70;91.67;98139.00;2141382;83;21055;-82
2021/08/31 04:09:09;;;;;;;13.55;9.50;;;;;;;13.70;91.82;98132.45;2167008;82;20953;-81
2021/08/31 04:12:10;;;;;;;11.15;9.25;;;;;;;13.73;91.89;98136.78;2141417;83;20980;-80
2021/08/31 04:15:10;;;;;;;9.35;8.38;;;;;;;13.77;91.78;98138.48;2166220;82;21020;-81
2021/08/31 04:18:11;;;;;;;11.00;10.00;;;;;;;13.84;91.76;98137.08;2141206;83;20983;-82
2021/08/31 04:21:11;;;;;;;10.72;9.43;;;;;;;13.90;91.63;98138.34;2166946;82;20969;-80
2021/08/31 04:24:11;;;;;;;7.53;6.78;;;;;;;13.96;91.57;98136.09;2141494;83;21358;-81
2021/08/31 04:27:12;;;;;;;9.98;9.08;;;;;;;14.01;91.53;98136.45;2167019;82;20965;-81
2021/08/31 04:30:13;;;;;;;8.98;8.08;;;;;;;14.05;91.52;98133.79;2141531;83;20932;-80
2021/08/31 04:33:13;;;;;;;8.93;7.97;;;;;;;14.09;91.36;98131.55;2167310;82;21368;-82
2021/08/31 04:36:14;;;;;;;9.38;7.10;;;;;;;14.16;91.35;98131.89;2137349;81;21038;-81
2021/08/31 04:39:14;;;;;;;7.47;6.78;;;;;;;14.19;91.08;98135.78;2226037;79;20964;-81
2021/08/31 04:42:15;;;;;;;9.50;7.92;;;;;;;14.27;91.07;98129.98;2227390;79;20983;-81
2021/08/31 04:45:15;;;;;;;13.38;10.00;;;;;;;14.29;90.91;98126.44;2227172;79;21299;-82
2021/08/31 04:48:16;;;;;;;13.18;11.97;;;;;;;14.31;91.01;98127.73;2227539;79;20960;-80
2021/08/31 04:51:16;;;;;;;9.80;8.80;;;;;;;14.40;90.99;98126.28;2226576;79;20936;-81
2021/08/31 04:54:17;;;;;;;8.88;8.08;;;;;;;14.49;90.69;98130.12;2226588;79;20964;-80
2021/08/31 04:57:17;;;;;;;7.80;7.05;;;;;;;14.50;90.51;98130.55;2226435;79;21410;-80
2021/08/31 05:00:18;;;;;;;7.60;6.80;;;;;;;14.46;90.34;98143.74;2226729;79;20963;-80
2021/08/31 05:03:18;;;;;;;8.60;6.70;;;;;;;14.41;90.44;98141.59;2226543;79;20963;-83
2021/08/31 05:06:19;;;;;;;7.62;6.90;;;;;;;14.38;90.56;98146.89;2226603;79;21460;-82
2021/08/31 05:09:19;;;;;;;6.20;5.65;;;;;;;14.39;90.62;98146.87;2176614;81;20970;-81
2021/08/31 05:12:20;;;;;;;6.30;5.70;;;;;;;14.33;90.41;98143.02;2226860;79;20968;-84
2021/08/31 05:15:20;;;;;;;4.72;4.30;;;;;;;14.25;90.46;98139.63;2227863;79;20956;-83
2021/08/31 05:18:21;;;;;;;8.65;6.00;;;;;;;14.23;90.71;98146.22;2226670;79;20916;-82
2021/08/31 05:21:21;;;;;;;6.08;5.58;;;;;;;14.18;90.81;98142.79;2225637;79;20905;-81
2021/08/31 05:24:22;;;;;;;4.97;4.58;;;;;;;14.14;90.95;98138.47;2225565;79;21257;-82
2021/08/31 05:27:22;;;;;;;7.90;6.70;;;;;;;14.13;91.14;98144.61;2225461;79;20999;-79
2021/08/31 05:30:23;;;;;;;5.25;4.80;;;;;;;14.13;91.25;98135.87;2176236;81;20971;-82
2021/08/31 05:33:23;;;;;;;11.80;10.78;;;;;;;14.14;91.35;98137.60;2226145;79;20992;-82
2021/08/31 05:36:24;;;;;;;7.90;7.20;;;;;;;14.17;91.36;98127.06;2225613;78;21054;-79
2021/08/31 05:39:32;;;;;;;8.08;7.28;;;;;;;14.25;91.16;98127.38;2179783;81;20953;-83
2021/08/31 05:42:27;;;;;;;9.60;8.20;;;;;;;14.31;90.97;98146.98;2165561;82;21048;-83
2021/08/31 05:45:34;;;;;;;9.10;8.20;;;;;;;14.34;90.95;98136.44;2141127;83;21023;-83
2021/08/31 05:48:41;;;;;;;12.75;8.68;;;;;;;14.38;90.87;98139.88;2167220;82;21040;-83
2021/08/31 05:51:42;;;;;;;10.38;9.45;;;;;;;14.40;90.67;98143.35;2141639;83;21012;-82
2021/08/31 05:54:42;;;;;;;10.58;6.80;;;;;;;14.40;90.84;98144.66;2166749;82;20984;-83
2021/08/31 05:57:43;;;;;;;5.53;4.95;;;;;;;14.44;90.45;98143.77;2140634;83;20931;-83
2021/08/31 06:00:43;;;;;;;5.03;4.25;;;;;;;14.47;90.22;98141.09;2166322;82;21004;-82
2021/08/31 06:03:44;;;;;;;6.17;4.20;;;;;;;14.49;89.79;98147.19;2141289;83;20939;-82
2021/08/31 06:06:44;;;;;;;8.10;3.35;;;;;;;14.46;89.82;98148.55;2165834;82;20992;-83
2021/08/31 06:09:45;;;;;;;5.05;3.33;;;;;;;14.50;89.80;98152.86;2140521;83;20916;-82
2021/08/31 06:12:45;;;;;;;5.60;5.00;;;;;;;14.54;89.50;98147.13;2166898;82;20956;-83
2021/08/31 06:15:46;;;;;;;4.50;3.50;;;;;;;14.58;89.63;98135.68;2140067;83;20979;-83
2021/08/31 06:18:46;;;;;;;38.33;28.55;;;;;;;14.62;89.41;98119.84;2165863;82;20980;-83
2021/08/31 06:21:47;;;;;;;3.20;2.90;;;;;;;14.68;89.25;98104.88;2179384;81;20971;-83
2021/08/31 06:24:47;;;;;;;4.35;3.22;;;;;;;14.69;89.02;98110.55;2179506;81;20920;-82
2021/08/31 06:27:48;;;;;;;2.55;1.98;;;;;;;14.75;88.95;98127.12;2179008;82;20987;-81
2021/08/31 06:30:48;;;;;;;2.33;2.12;;;;;;;14.79;88.79;98131.88;2179321;81;20928;-81
2021/08/31 06:33:49;;;;;;;2.70;2.50;;;;;;;14.77;88.58;98134.53;2179141;81;21714;-82
2021/08/31 06:36:50;;;;;;;2.30;2.15;;;;;;;14.77;88.70;98133.22;2175546;81;21359;-81
2021/08/31 06:39:50;;;;;;;2.70;2.50;;;;;;;14.79;88.86;98135.81;2176197;82;21677;-82
2021/08/31 06:42:52;;;;;;;3.50;3.20;;;;;;;14.77;88.88;98131.91;2176524;82;21011;-83
2021/08/31 06:45:52;;;;;;;5.20;3.45;;;;;;;14.76;88.67;98135.87;2175994;82;20955;-82
2021/08/31 06:48:53;;;;;;;4.90;3.15;;;;;;;14.77;88.55;98139.78;2175829;82;20974;-82
2021/08/31 06:51:53;;;;;;;3.95;3.12;;;;;;;14.80;88.27;98137.11;2176270;82;20960;-82
2021/08/31 06:54:54;;;;;;;5.90;3.37;;;;;;;14.84;87.72;98129.59;2176286;82;20979;-80
2021/08/31 06:57:54;;;;;;;5.22;3.58;;;;;;;14.81;87.43;98132.27;2176235;82;21381;-83
2021/08/31 07:00:55;;;;;;;7.03;3.60;;;;;;;14.82;87.14;98137.08;2176593;82;20967;-82
2021/08/31 07:03:57;;;;;;;6.17;4.33;;;;;;;14.92;86.74;98147.86;2176746;82;20999;-82
2021/08/31 07:06:58;;;;;;;3.85;3.25;;;;;;;15.03;86.86;98143.29;2176061;82;21030;-82
2021/08/31 07:09:59;;;;;;;4.03;3.40;;;;;;;15.18;86.49;98150.91;2176531;82;21480;-82
2021/08/31 07:12:59;;;;;;;5.03;2.92;;;;;;;15.33;86.46;98146.27;2176139;82;21030;-81
2021/08/31 07:16:00;;;;;;;6.37;3.10;;;;;;;15.55;85.98;98144.98;2175921;82;20943;-82
2021/08/31 07:19:00;;;;;;;3.62;3.33;;;;;;;15.87;85.27;98143.09;2176157;82;20983;-81
2021/08/31 07:22:03;;;;;;;3.33;3.13;;;;;;;16.03;84.88;98137.05;2176776;82;21051;-82
2021/08/31 07:25:04;;;;;;;3.87;3.58;;;;;;;16.16;84.68;98145.11;2176065;82;20991;-81
2021/08/31 07:28:05;;;;;;;5.87;3.20;;;;;;;16.27;85.11;98135.20;2176082;82;21067;-80
2021/08/31 07:31:05;;;;;;;4.97;3.47;;;;;;;16.23;84.60;98134.86;2175839;82;20943;-82
2021/08/31 07:34:06;;;;;;;3.20;3.00;;;;;;;16.37;84.33;98134.55;2175618;82;20995;-81
2021/08/31 07:37:07;;;;;;;5.20;2.90;;;;;;;16.48;84.03;98140.02;2175407;81;21050;-81
2021/08/31 07:40:07;;;;;;;3.33;3.02;;;;;;;16.64;83.45;98138.34;2176004;82;20947;-81
2021/08/31 07:43:08;;;;;;;3.30;3.00;;;;;;;16.73;83.53;98130.25;2176453;82;21326;-82
2021/08/31 07:46:09;;;;;;;3.80;3.40;;;;;;;16.85;82.59;98136.55;2175813;82;20986;-81
2021/08/31 07:49:09;;;;;;;3.50;3.25;;;;;;;17.05;82.29;98140.87;2175530;82;20943;-80
2021/08/31 07:52:10;;;;;;;3.85;3.12;;;;;;;17.01;82.01;98151.08;2175964;82;20919;-81
2021/08/31 07:55:11;;;;;;;3.40;3.20;;;;;;;16.85;82.77;98145.77;2175620;82;21010;-82
2021/08/31 07:58:12;;;;;;;5.20;3.87;;;;;;;16.78;81.80;98165.27;2175667;82;20954;-81
2021/08/31 08:01:12;;;;;;;6.40;4.20;;;;;;;16.82;81.46;98160.34;2176562;82;21358;-82
2021/08/31 08:07:15;;;;;;;5.62;3.87;;;;;;;17.04;80.17;98158.91;2149143;82;21362;-81
2021/08/31 08:10:17;;;;;;;4.10;3.80;;;;;;;17.27;80.46;98157.47;2176127;82;20999;-80
2021/08/31 08:13:17;;;;;;;4.40;4.10;;;;;;;17.50;80.12;98156.44;2175862;82;20990;-80
2021/08/31 08:16:20;;;;;;;3.90;3.60;;;;;;;17.65;78.75;98152.52;2175678;82;21347;-82
2021/08/31 08:19:20;;;;;;;3.67;3.42;;;;;;;18.00;79.33;98148.92;2175482;82;20923;-81
2021/08/31 08:22:21;;;;;;;3.37;3.17;;;;;;;18.53;78.17;98149.12;2175585;82;20967;-81
2021/08/31 08:25:21;;;;;;;3.98;3.47;;;;;;;18.87;75.97;98148.48;2175023;82;20963;-82
2021/08/31 08:28:22;;;;;;;3.45;3.20;;;;;;;18.84;76.65;98139.33;2175581;82;20943;-81
2021/08/31 08:31:22;;;;;;;3.80;2.90;;;;;;;18.82;75.41;98141.62;2175106;82;20943;-81
2021/08/31 08:34:23;;;;;;;3.20;2.70;;;;;;;18.84;75.51;98143.75;2175719;82;20963;-82
2021/08/31 08:37:26;;;;;;;2.45;2.33;;;;;;;18.94;73.42;98131.50;2179316;81;20967;-81
2021/08/31 08:40:27;;;;;;;2.90;2.70;;;;;;;19.34;75.03;98127.55;2179130;82;21000;-81
2021/08/31 08:43:27;;;;;;;3.05;2.85;;;;;;;19.77;72.61;98132.67;2179954;82;20947;-80
2021/08/31 08:46:28;;;;;;;2.80;2.60;;;;;;;19.73;71.80;98136.75;2180211;82;21014;-81
2021/08/31 08:49:28;;;;;;;2.95;2.75;;;;;;;19.54;71.78;98129.06;2179916;82;21342;-81
2021/08/31 08:52:29;;;;;;;3.45;2.92;;;;;;;19.47;71.00;98139.43;2179131;82;20943;-81
2021/08/31 08:55:29;;;;;;;2.87;2.67;;;;;;;19.42;71.00;98134.75;2178736;81;20975;-80
2021/08/31 08:58:30;;;;;;;2.87;2.77;;;;;;;19.34;70.53;98135.48;2179414;82;20971;-80
2021/08/31 09:01:32;;;;;;;3.00;2.80;;;;;;;19.20;71.29;98136.41;2166550;82;20931;-81
2021/08/31 09:04:33;;;;;;;2.50;2.30;;;;;;;18.99;72.07;98147.22;2179729;81;21409;-81
2021/08/31 09:07:33;;;;;;;2.52;2.33;;;;;;;18.72;70.86;98148.98;2179578;81;20951;-80
2021/08/31 09:10:34;;;;;;;5.92;2.87;;;;;;;18.63;72.54;98141.34;2179733;81;20977;-81
2021/08/31 09:13:35;;;;;;;10.88;9.88;;;;;;;18.52;72.83;98148.70;2179896;81;21038;-82
2021/08/31 09:16:35;;;;;;;5.72;4.92;;;;;;;18.39;73.57;98149.55;2179187;82;21446;-82
2021/08/31 09:19:36;;;;;;;3.90;3.25;;;;;;;18.33;74.42;98146.63;2179404;81;21010;-81
2021/08/31 09:22:36;;;;;;;5.22;3.75;;;;;;;18.28;75.11;98152.52;2178803;82;20971;-82
2021/08/31 09:25:37;;;;;;;3.22;2.92;;;;;;;18.32;75.42;98159.44;2179347;82;20936;-81
2021/08/31 09:28:37;;;;;;;3.15;2.95;;;;;;;18.13;76.29;98158.22;2179392;82;20998;-81
2021/08/31 09:31:38;;;;;;;4.12;3.72;;;;;;;17.85;77.67;98166.52;2179467;82;20994;-82
2021/08/31 09:34:38;;;;;;;3.50;3.30;;;;;;;17.64;77.90;98160.89;2180443;81;20991;-83
2021/08/31 09:37:41;;;;;;;3.52;3.22;;;;;;;17.46;78.16;98166.66;2175988;81;21263;-82
2021/08/31 09:40:41;;;;;;;3.27;2.80;;;;;;;17.30;78.52;98168.80;2176602;82;20958;-83
2021/08/31 09:43:42;;;;;;;3.33;3.02;;;;;;;17.12;78.68;98170.14;2176297;82;20943;-84
2021/08/31 09:46:42;;;;;;;6.17;3.65;;;;;;;16.89;79.67;98173.79;2176512;82;20999;-85
2021/08/31 09:49:43;;;;;;;5.47;3.67;;;;;;;16.76;80.37;98180.25;2177056;82;21008;-84
2021/08/31 09:52:44;;;;;;;4.20;3.80;;;;;;;16.73;81.07;98168.02;2175861;82;20994;-86
2021/08/31 09:55:44;;;;;;;4.25;3.85;;;;;;;16.87;81.26;98166.38;2175210;82;21104;-83
2021/08/31 09:58:45;;;;;;;4.08;3.72;;;;;;;17.18;81.24;98159.44;2175401;82;20991;-82
2021/08/31 10:01:45;;;;;;;4.35;4.00;;;;;;;17.36;80.42;98159.45;2175566;82;20951;-83
2021/08/31 10:04:46;;;;;;;6.22;5.53;;;;;;;17.60;80.09;98154.42;2174877;82;20951;-83
2021/08/31 10:07:46;;;;;;;4.40;3.70;;;;;;;17.89;80.31;98147.04;2175227;82;21058;-84
2021/08/31 10:10:47;;;;;;;2.85;2.65;;;;;;;18.17;79.17;98151.06;2175751;82;20935;-83
2021/08/31 10:13:47;;;;;;;2.12;1.92;;;;;;;18.18;78.00;98153.66;2175285;82;20944;-83
2021/08/31 10:16:48;;;;;;;1.90;1.80;;;;;;;18.11;77.56;98160.90;2174932;82;21817;-83
2021/08/31 10:19:48;;;;;;;1.90;1.80;;;;;;;18.18;77.61;98164.69;2175927;82;20982;-85
2021/08/31 10:22:49;;;;;;;2.00;1.90;;;;;;;18.26;77.64;98162.71;2176352;82;21350;-83
2021/08/31 10:25:49;;;;;;;1.80;1.70;;;;;;;18.37;76.66;98172.50;2176048;82;21433;-82
2021/08/31 10:28:50;;;;;;;2.52;2.10;;;;;;;18.45;77.53;98169.17;2175697;82;20939;-81
2021/08/31 10:31:50;;;;;;;2.10;1.80;;;;;;;18.61;77.09;98172.20;2174780;82;20990;-81
2021/08/31 10:34:51;;;;;;;2.27;2.17;;;;;;;18.69;75.57;98167.13;2175294;82;20999;-82
2021/08/31 10:37:51;;;;;;;3.42;3.12;;;;;;;18.65;76.04;98171.23;2178698;81;21398;-82
2021/08/31 10:40:52;;;;;;;4.58;4.17;;;;;;;18.51;76.61;98172.08;2179121;82;20979;-82
2021/08/31 10:43:53;;;;;;;4.35;3.95;;;;;;;18.36;76.93;98167.67;2179733;81;20971;-83
2021/08/31 10:46:53;;;;;;;5.15;4.65;;;;;;;18.35;77.66;98171.23;2179455;82;20947;-82
2021/08/31 10:49:54;;;;;;;4.10;3.72;;;;;;;18.42;77.93;98182.02;2179026;81;20963;-83
2021/08/31 10:52:56;;;;;;;4.80;3.85;;;;;;;18.44;78.45;98180.66;2179087;81;21000;-83
2021/08/31 10:55:57;;;;;;;3.95;3.60;;;;;;;18.35;77.94;98182.25;2178792;81;20971;-84
2021/08/31 10:58:57;;;;;;;4.42;4.12;;;;;;;18.33;77.28;98184.08;2179263;81;21433;-82
2021/08/31 11:01:58;;;;;;;4.00;3.70;;;;;;;18.39;77.87;98176.83;2179887;82;20955;-83
2021/08/31 11:04:58;;;;;;;5.03;4.00;;;;;;;18.42;77.83;98175.42;2180240;82;20940;-83
2021/08/31 11:08:02;;;;;;;5.95;4.15;;;;;;;18.50;77.77;98170.36;2180384;81;21370;-83
2021/08/31 11:11:03;;;;;;;4.22;3.92;;;;;;;18.69;78.10;98159.20;2180027;82;21410;-82
2021/08/31 11:14:03;;;;;;;4.20;3.90;;;;;;;18.69;78.10;98159.20;2180249;81;20995;-83
2021/08/31 11:17:04;;;;;;;3.85;3.25;;;;;;;18.82;77.35;98149.09;2178657;81;21322;-81
2021/08/31 11:20:04;;;;;;;4.60;3.33;;;;;;;18.77;75.47;98162.91;2178688;81;21354;-82
2021/08/31 11:23:05;;;;;;;3.75;3.50;;;;;;;18.78;75.94;98161.55;2177993;81;20994;-80
2021/08/31 11:26:06;;;;;;;3.90;3.60;;;;;;;18.89;75.09;98159.88;2178621;81;20967;-81
2021/08/31 11:29:06;;;;;;;3.52;3.20;;;;;;;18.99;74.92;98153.38;2179025;82;21357;-81
2021/08/31 11:32:07;;;;;;;4.87;3.40;;;;;;;19.17;74.60;98148.42;2179910;81;20995;-81
2021/08/31 11:35:08;;;;;;;3.90;3.60;;;;;;;19.15;74.05;98151.13;2179865;82;20960;-81
2021/08/31 11:38:08;;;;;;;4.87;3.65;;;;;;;19.04;74.92;98152.77;2176109;81;21003;-83
2021/08/31 11:41:09;;;;;;;5.08;3.72;;;;;;;19.05;75.97;98159.78;2175766;82;20936;-81
2021/08/31 11:44:09;;;;;;;3.75;3.45;;;;;;;19.18;75.13;98166.02;2176093;82;20975;-83
2021/08/31 11:47:10;;;;;;;3.75;3.45;;;;;;;19.28;74.89;98169.63;2175585;82;20967;-81
2021/08/31 11:50:10;;;;;;;3.58;3.37;;;;;;;19.59;73.27;98176.09;2175143;82;20915;-81
2021/08/31 11:53:11;;;;;;;4.00;3.62;;;;;;;19.95;72.59;98174.41;2174832;82;20951;-81
2021/08/31 11:56:13;;;;;;;5.58;4.37;;;;;;;20.08;71.82;98179.66;2174561;82;20979;-81
2021/08/31 12:02:16;;;;;;;5.65;5.10;;;;;;;19.60;71.92;98185.77;2148713;82;20939;-80
2021/08/31 12:05:17;;;;;;;4.28;3.98;;;;;;;19.63;72.82;98181.69;2175399;82;20948;-81
2021/08/31 12:08:17;;;;;;;3.72;3.45;;;;;;;19.62;70.66;98183.92;2175328;82;21094;-81
2021/08/31 12:11:18;;;;;;;3.92;3.50;;;;;;;19.81;68.62;98189.89;2175930;82;20988;-81
2021/08/31 12:14:18;;;;;;;3.70;3.40;;;;;;;19.83;69.45;98193.36;2175522;82;20959;-80
2021/08/31 12:17:19;;;;;;;4.40;4.03;;;;;;;19.89;67.60;98195.78;2175221;82;20971;-80
2021/08/31 12:20:19;;;;;;;3.83;3.52;;;;;;;19.88;69.70;98202.00;2175987;82;20979;-83
2021/08/31 12:23:20;;;;;;;5.20;3.58;;;;;;;19.84;68.88;98198.59;2176160;82;20923;-80
2021/08/31 12:26:20;;;;;;;4.40;3.22;;;;;;;19.75;69.65;98191.44;2175397;82;20971;-81
2021/08/31 12:29:21;;;;;;;4.00;3.22;;;;;;;19.47;69.36;98193.69;2175203;82;20935;-80
2021/08/31 12:32:21;;;;;;;3.75;3.45;;;;;;;19.36;70.68;98202.45;2175666;82;20932;-81
2021/08/31 12:35:26;;;;;;;4.03;3.72;;;;;;;19.27;69.82;98195.69;2175482;82;20966;-82
2021/08/31 12:38:27;;;;;;;3.87;3.67;;;;;;;19.20;71.27;98198.58;2175491;81;21394;-81
2021/08/31 12:41:32;;;;;;;3.83;3.50;;;;;;;19.07;72.14;98204.70;2175903;82;20992;-80
2021/08/31 12:44:30;;;;;;;3.75;3.45;;;;;;;18.99;72.55;98212.02;2225219;80;20948;-81
2021/08/31 12:47:33;;;;;;;4.28;3.15;;;;;;;18.97;72.85;98209.42;2225888;80;21056;-82
2021/08/31 12:50:34;;;;;;;3.70;3.05;;;;;;;19.20;70.65;98208.71;2226317;79;20987;-82
2021/08/31 12:53:34;;;;;;;3.58;3.25;;;;;;;19.00;70.01;98201.39;2227167;79;21003;-82
2021/08/31 12:56:35;;;;;;;3.92;3.58;;;;;;;18.76;71.07;98196.88;2177400;81;20971;-81
2021/08/31 12:59:35;;;;;;;3.80;3.50;;;;;;;18.69;72.39;98192.70;2226765;79;20908;-82
2021/08/31 13:02:36;;;;;;;3.40;3.10;;;;;;;18.77;72.79;98186.25;2177136;81;21327;-81
2021/08/31 13:05:36;;;;;;;3.05;2.85;;;;;;;18.98;71.68;98193.96;2225539;80;20920;-81
2021/08/31 13:08:37;;;;;;;3.95;3.27;;;;;;;19.16;71.89;98198.28;2225511;80;20976;-81
2021/08/31 13:11:37;;;;;;;3.30;3.00;;;;;;;19.15;71.20;98195.23;2226780;79;20968;-82
2021/08/31 13:14:39;;;;;;;3.20;2.90;;;;;;;19.23;71.73;98192.73;2226850;79;20984;-81
2021/08/31 13:17:40;;;;;;;2.52;2.42;;;;;;;19.36;71.11;98202.45;2176991;81;21335;-81
2021/08/31 13:20:40;;;;;;;2.15;2.05;;;;;;;19.66;69.89;98192.17;2226810;79;20932;-82
2021/08/31 13:23:41;;;;;;;2.65;2.45;;;;;;;20.08;68.50;98192.91;2226571;79;20920;-82
2021/08/31 13:26:41;;;;;;;2.85;2.52;;;;;;;19.97;67.95;98183.16;2227115;79;20958;-83
2021/08/31 13:29:42;;;;;;;4.17;3.87;;;;;;;19.93;68.55;98178.86;2177361;81;21283;-82
2021/08/31 13:32:42;;;;;;;4.08;3.77;;;;;;;19.99;68.41;98187.95;2226275;79;21567;-81
2021/08/31 13:35:43;;;;;;;3.92;3.12;;;;;;;19.73;67.92;98179.58;2226874;79;20994;-81
2021/08/31 13:38:44;;;;;;;5.85;3.35;;;;;;;19.87;68.62;98184.38;2261177;79;21003;-83
2021/08/31 13:41:44;;;;;;;3.33;2.30;;;;;;;19.98;67.61;98193.70;2211358;81;20969;-82
2021/08/31 13:44:45;;;;;;;2.65;2.50;;;;;;;19.64;67.66;98183.41;2183474;82;20948;-82
2021/08/31 13:47:45;;;;;;;2.98;2.77;;;;;;;19.29;69.38;98189.88;2184283;81;20976;-81
2021/08/31 13:50:46;;;;;;;2.92;2.72;;;;;;;19.09;69.97;98179.96;2183840;81;20968;-81
2021/08/31 13:53:46;;;;;;;4.58;2.90;;;;;;;18.92;70.68;98181.39;2184680;81;20960;-81
2021/08/31 13:56:47;;;;;;;2.60;2.40;;;;;;;18.76;73.54;98187.17;2185212;81;20932;-81
2021/08/31 13:59:47;;;;;;;2.98;2.67;;;;;;;18.48;74.29;98190.67;2184838;81;20940;-81
2021/08/31 14:02:48;;;;;;;3.10;2.90;;;;;;;18.28;76.17;98191.27;2184913;81;20953;-82
2021/08/31 14:05:48;;;;;;;2.50;2.40;;;;;;;18.13;76.59;98185.48;2185401;81;21276;-83
2021/08/31 14:08:49;;;;;;;2.80;2.20;;;;;;;18.03;76.98;98184.48;2184449;81;20968;-83
2021/08/31 14:11:49;;;;;;;2.67;2.37;;;;;;;17.98;77.94;98190.34;2185493;81;20924;-83
2021/08/31 14:14:50;;;;;;;5.92;2.52;;;;;;;17.84;77.44;98188.09;2186129;81;20983;-83
2021/08/31 14:17:52;;;;;;;4.37;2.58;;;;;;;17.85;78.44;98191.59;2158777;82;20964;-83